sensor_id;sensor_type;location;lat;lon;timestamp;P1;durP1;ratioP1;P2;durP2;ratioP2
47589;SDS011;33316;52.298;9.056;2022-12-10T00:01:04;17.95;;;10.05;;
47589;SDS011;33316;52.298;9.056;2022-12-10T00:03:31;21.42;;;10.15;;
47589;SDS011;33316;52.298;9.056;2022-12-10T00:05:59;19.60;;;9.70;;
47589;SDS011;33316;52.298;9.056;2022-12-10T00:08:26;18.75;;;10.05;;
47589;SDS011;33316;52.298;9.056;2022-12-10T00:10:53;16.48;;;9.00;;
47589;SDS011;33316;52.298;9.056;2022-12-10T00:13:20;20.77;;;10.80;;
47589;SDS011;33316;52.298;9.056;2022-12-10T00:15:47;22.05;;;10.95;;
47589;SDS011;33316;52.298;9.056;2022-12-10T00:18:15;16.65;;;9.82;;
47589;SDS011;33316;52.298;9.056;2022-12-10T00:20:42;20.00;;;9.98;;
47589;SDS011;33316;52.298;9.056;2022-12-10T00:23:09;21.42;;;10.68;;
47589;SDS011;33316;52.298;9.056;2022-12-10T00:25:35;22.58;;;11.60;;
47589;SDS011;33316;52.298;9.056;2022-12-10T00:28:02;20.27;;;10.38;;
47589;SDS011;33316;52.298;9.056;2022-12-10T00:30:29;23.67;;;11.35;;
47589;SDS011;33316;52.298;9.056;2022-12-10T00:32:56;22.27;;;10.02;;
47589;SDS011;33316;52.298;9.056;2022-12-10T00:35:24;21.42;;;10.65;;
47589;SDS011;33316;52.298;9.056;2022-12-10T00:37:51;22.45;;;11.77;;
47589;SDS011;33316;52.298;9.056;2022-12-10T00:40:18;21.98;;;10.23;;
47589;SDS011;33316;52.298;9.056;2022-12-10T00:42:45;24.02;;;10.38;;
47589;SDS011;33316;52.298;9.056;2022-12-10T00:45:12;21.98;;;10.48;;
47589;SDS011;33316;52.298;9.056;2022-12-10T00:47:39;20.50;;;10.10;;
47589;SDS011;33316;52.298;9.056;2022-12-10T00:50:06;20.23;;;10.38;;
47589;SDS011;33316;52.298;9.056;2022-12-10T00:52:34;20.70;;;10.80;;
47589;SDS011;33316;52.298;9.056;2022-12-10T00:55:01;21.02;;;9.23;;
47589;SDS011;33316;52.298;9.056;2022-12-10T00:57:28;19.95;;;9.45;;
47589;SDS011;33316;52.298;9.056;2022-12-10T00:59:55;23.52;;;9.57;;
47589;SDS011;33316;52.298;9.056;2022-12-10T01:02:22;22.75;;;9.93;;
47589;SDS011;33316;52.298;9.056;2022-12-10T01:04:51;21.20;;;10.05;;
47589;SDS011;33316;52.298;9.056;2022-12-10T01:07:18;20.40;;;10.13;;
47589;SDS011;33316;52.298;9.056;2022-12-10T01:09:46;23.83;;;11.90;;
47589;SDS011;33316;52.298;9.056;2022-12-10T01:12:13;22.67;;;11.63;;
47589;SDS011;33316;52.298;9.056;2022-12-10T01:14:40;27.15;;;13.00;;
47589;SDS011;33316;52.298;9.056;2022-12-10T01:17:07;26.17;;;12.25;;
47589;SDS011;33316;52.298;9.056;2022-12-10T01:19:34;26.70;;;12.68;;
47589;SDS011;33316;52.298;9.056;2022-12-10T01:22:01;22.23;;;10.70;;
47589;SDS011;33316;52.298;9.056;2022-12-10T01:24:30;21.80;;;10.63;;
47589;SDS011;33316;52.298;9.056;2022-12-10T01:26:58;23.15;;;10.60;;
47589;SDS011;33316;52.298;9.056;2022-12-10T01:29:25;24.25;;;10.52;;
47589;SDS011;33316;52.298;9.056;2022-12-10T01:31:54;23.00;;;10.68;;
47589;SDS011;33316;52.298;9.056;2022-12-10T01:34:22;21.50;;;11.05;;
47589;SDS011;33316;52.298;9.056;2022-12-10T01:36:51;28.02;;;11.30;;
47589;SDS011;33316;52.298;9.056;2022-12-10T01:39:19;23.40;;;11.48;;
47589;SDS011;33316;52.298;9.056;2022-12-10T01:41:48;23.58;;;11.50;;
47589;SDS011;33316;52.298;9.056;2022-12-10T01:47:24;29.45;;;12.60;;
47589;SDS011;33316;52.298;9.056;2022-12-10T01:49:51;24.98;;;12.65;;
47589;SDS011;33316;52.298;9.056;2022-12-10T01:52:18;24.05;;;11.68;;
47589;SDS011;33316;52.298;9.056;2022-12-10T01:54:45;22.70;;;11.50;;
47589;SDS011;33316;52.298;9.056;2022-12-10T01:57:13;19.13;;;9.82;;
47589;SDS011;33316;52.298;9.056;2022-12-10T01:59:43;21.93;;;10.77;;
47589;SDS011;33316;52.298;9.056;2022-12-10T02:02:13;19.42;;;10.35;;
47589;SDS011;33316;52.298;9.056;2022-12-10T02:04:47;22.55;;;11.07;;
47589;SDS011;33316;52.298;9.056;2022-12-10T02:07:24;25.80;;;10.98;;
47589;SDS011;33316;52.298;9.056;2022-12-10T02:09:58;26.35;;;11.73;;
47589;SDS011;33316;52.298;9.056;2022-12-10T02:12:34;25.15;;;11.95;;
47589;SDS011;33316;52.298;9.056;2022-12-10T02:15:06;23.05;;;11.90;;
47589;SDS011;33316;52.298;9.056;2022-12-10T02:17:40;25.27;;;12.35;;
47589;SDS011;33316;52.298;9.056;2022-12-10T02:20:12;25.92;;;12.07;;
47589;SDS011;33316;52.298;9.056;2022-12-10T02:22:44;28.20;;;11.77;;
47589;SDS011;33316;52.298;9.056;2022-12-10T02:25:14;19.55;;;10.48;;
47589;SDS011;33316;52.298;9.056;2022-12-10T02:27:44;23.65;;;10.88;;
47589;SDS011;33316;52.298;9.056;2022-12-10T02:30:17;18.40;;;9.23;;
47589;SDS011;33316;52.298;9.056;2022-12-10T02:32:44;21.27;;;10.57;;
47589;SDS011;33316;52.298;9.056;2022-12-10T02:35:16;21.00;;;9.50;;
47589;SDS011;33316;52.298;9.056;2022-12-10T02:37:47;22.60;;;10.52;;
47589;SDS011;33316;52.298;9.056;2022-12-10T02:40:17;19.38;;;9.65;;
47589;SDS011;33316;52.298;9.056;2022-12-10T02:42:49;20.85;;;10.13;;
47589;SDS011;33316;52.298;9.056;2022-12-10T02:45:19;24.58;;;11.45;;
47589;SDS011;33316;52.298;9.056;2022-12-10T02:47:48;26.63;;;12.50;;
47589;SDS011;33316;52.298;9.056;2022-12-10T02:50:17;28.45;;;12.48;;
47589;SDS011;33316;52.298;9.056;2022-12-10T02:52:46;25.45;;;11.77;;
47589;SDS011;33316;52.298;9.056;2022-12-10T02:55:13;28.83;;;12.23;;
47589;SDS011;33316;52.298;9.056;2022-12-10T02:57:41;27.25;;;11.07;;
47589;SDS011;33316;52.298;9.056;2022-12-10T03:00:23;24.48;;;10.40;;
47589;SDS011;33316;52.298;9.056;2022-12-10T03:02:55;24.42;;;10.60;;
47589;SDS011;33316;52.298;9.056;2022-12-10T03:05:33;23.15;;;10.63;;
47589;SDS011;33316;52.298;9.056;2022-12-10T03:08:05;31.20;;;12.13;;
47589;SDS011;33316;52.298;9.056;2022-12-10T03:10:39;23.88;;;11.18;;
47589;SDS011;33316;52.298;9.056;2022-12-10T03:13:12;23.08;;;10.82;;
47589;SDS011;33316;52.298;9.056;2022-12-10T03:15:42;26.35;;;11.77;;
47589;SDS011;33316;52.298;9.056;2022-12-10T03:18:11;22.92;;;10.63;;
47589;SDS011;33316;52.298;9.056;2022-12-10T03:20:42;19.73;;;10.50;;
47589;SDS011;33316;52.298;9.056;2022-12-10T03:23:12;22.88;;;10.32;;
47589;SDS011;33316;52.298;9.056;2022-12-10T03:25:42;20.77;;;10.18;;
47589;SDS011;33316;52.298;9.056;2022-12-10T03:28:10;20.02;;;10.05;;
47589;SDS011;33316;52.298;9.056;2022-12-10T03:30:38;19.52;;;10.32;;
47589;SDS011;33316;52.298;9.056;2022-12-10T03:33:08;23.52;;;10.13;;
47589;SDS011;33316;52.298;9.056;2022-12-10T03:35:36;23.48;;;11.05;;
47589;SDS011;33316;52.298;9.056;2022-12-10T03:38:04;24.35;;;10.93;;
47589;SDS011;33316;52.298;9.056;2022-12-10T03:40:31;25.17;;;11.18;;
47589;SDS011;33316;52.298;9.056;2022-12-10T03:42:58;23.38;;;11.27;;
47589;SDS011;33316;52.298;9.056;2022-12-10T03:45:25;22.45;;;11.07;;
47589;SDS011;33316;52.298;9.056;2022-12-10T03:47:51;26.60;;;11.80;;
47589;SDS011;33316;52.298;9.056;2022-12-10T03:50:19;25.02;;;11.25;;
47589;SDS011;33316;52.298;9.056;2022-12-10T03:52:46;20.23;;;10.32;;
47589;SDS011;33316;52.298;9.056;2022-12-10T03:55:13;22.58;;;9.75;;
47589;SDS011;33316;52.298;9.056;2022-12-10T03:57:40;23.00;;;11.30;;
47589;SDS011;33316;52.298;9.056;2022-12-10T04:00:07;23.08;;;10.80;;
47589;SDS011;33316;52.298;9.056;2022-12-10T04:02:35;21.65;;;10.50;;
47589;SDS011;33316;52.298;9.056;2022-12-10T04:05:02;18.52;;;9.68;;
47589;SDS011;33316;52.298;9.056;2022-12-10T04:07:33;21.20;;;10.30;;
47589;SDS011;33316;52.298;9.056;2022-12-10T04:09:59;20.33;;;10.25;;
47589;SDS011;33316;52.298;9.056;2022-12-10T04:12:26;22.75;;;10.65;;
47589;SDS011;33316;52.298;9.056;2022-12-10T04:14:53;19.67;;;10.10;;
47589;SDS011;33316;52.298;9.056;2022-12-10T04:17:37;22.75;;;10.55;;
47589;SDS011;33316;52.298;9.056;2022-12-10T04:20:05;19.48;;;9.55;;
47589;SDS011;33316;52.298;9.056;2022-12-10T04:22:54;19.25;;;9.82;;
47589;SDS011;33316;52.298;9.056;2022-12-10T04:25:39;24.13;;;10.57;;
47589;SDS011;33316;52.298;9.056;2022-12-10T04:28:23;20.48;;;9.75;;
47589;SDS011;33316;52.298;9.056;2022-12-10T04:30:50;18.60;;;9.70;;
47589;SDS011;33316;52.298;9.056;2022-12-10T04:33:16;24.75;;;12.00;;
47589;SDS011;33316;52.298;9.056;2022-12-10T04:35:43;25.95;;;11.32;;
47589;SDS011;33316;52.298;9.056;2022-12-10T04:38:11;24.65;;;11.13;;
47589;SDS011;33316;52.298;9.056;2022-12-10T04:40:38;25.75;;;11.07;;
47589;SDS011;33316;52.298;9.056;2022-12-10T04:43:05;22.70;;;10.60;;
47589;SDS011;33316;52.298;9.056;2022-12-10T04:45:33;25.98;;;11.95;;
47589;SDS011;33316;52.298;9.056;2022-12-10T04:48:00;25.35;;;11.07;;
47589;SDS011;33316;52.298;9.056;2022-12-10T04:50:27;27.02;;;12.35;;
47589;SDS011;33316;52.298;9.056;2022-12-10T04:52:54;23.80;;;11.93;;
47589;SDS011;33316;52.298;9.056;2022-12-10T04:55:22;26.40;;;11.52;;
47589;SDS011;33316;52.298;9.056;2022-12-10T04:57:49;26.38;;;11.63;;
47589;SDS011;33316;52.298;9.056;2022-12-10T05:00:16;27.05;;;11.45;;
47589;SDS011;33316;52.298;9.056;2022-12-10T05:02:43;23.95;;;10.55;;
47589;SDS011;33316;52.298;9.056;2022-12-10T05:05:09;23.98;;;11.55;;
47589;SDS011;33316;52.298;9.056;2022-12-10T05:07:37;26.30;;;10.75;;
47589;SDS011;33316;52.298;9.056;2022-12-10T05:10:04;30.27;;;12.88;;
47589;SDS011;33316;52.298;9.056;2022-12-10T05:12:33;28.95;;;13.18;;
47589;SDS011;33316;52.298;9.056;2022-12-10T05:15:00;28.83;;;12.50;;
47589;SDS011;33316;52.298;9.056;2022-12-10T05:17:26;24.23;;;11.68;;
47589;SDS011;33316;52.298;9.056;2022-12-10T05:19:53;24.13;;;11.43;;
47589;SDS011;33316;52.298;9.056;2022-12-10T05:22:20;25.70;;;12.15;;
47589;SDS011;33316;52.298;9.056;2022-12-10T05:25:04;29.20;;;12.55;;
47589;SDS011;33316;52.298;9.056;2022-12-10T05:27:33;30.40;;;12.60;;
47589;SDS011;33316;52.298;9.056;2022-12-10T05:30:00;27.08;;;12.88;;
47589;SDS011;33316;52.298;9.056;2022-12-10T05:32:27;30.17;;;13.00;;
47589;SDS011;33316;52.298;9.056;2022-12-10T05:34:54;30.73;;;12.88;;
47589;SDS011;33316;52.298;9.056;2022-12-10T05:37:20;30.13;;;13.07;;
47589;SDS011;33316;52.298;9.056;2022-12-10T05:39:47;28.88;;;12.52;;
47589;SDS011;33316;52.298;9.056;2022-12-10T05:42:14;27.10;;;11.88;;
47589;SDS011;33316;52.298;9.056;2022-12-10T05:44:42;24.70;;;11.00;;
47589;SDS011;33316;52.298;9.056;2022-12-10T05:47:09;27.52;;;11.65;;
47589;SDS011;33316;52.298;9.056;2022-12-10T05:49:36;29.17;;;12.10;;
47589;SDS011;33316;52.298;9.056;2022-12-10T05:52:02;29.65;;;12.15;;
47589;SDS011;33316;52.298;9.056;2022-12-10T05:54:29;32.38;;;12.85;;
47589;SDS011;33316;52.298;9.056;2022-12-10T05:56:56;30.58;;;13.35;;
47589;SDS011;33316;52.298;9.056;2022-12-10T05:59:23;30.52;;;12.98;;
47589;SDS011;33316;52.298;9.056;2022-12-10T06:01:51;31.83;;;12.80;;
47589;SDS011;33316;52.298;9.056;2022-12-10T06:04:18;29.85;;;12.20;;
47589;SDS011;33316;52.298;9.056;2022-12-10T06:06:45;30.63;;;12.07;;
47589;SDS011;33316;52.298;9.056;2022-12-10T06:09:13;30.42;;;11.82;;
47589;SDS011;33316;52.298;9.056;2022-12-10T06:11:40;29.33;;;12.05;;
47589;SDS011;33316;52.298;9.056;2022-12-10T06:14:08;30.10;;;11.93;;
47589;SDS011;33316;52.298;9.056;2022-12-10T06:16:35;28.75;;;12.05;;
47589;SDS011;33316;52.298;9.056;2022-12-10T06:19:03;31.20;;;12.25;;
47589;SDS011;33316;52.298;9.056;2022-12-10T06:21:30;26.23;;;11.68;;
47589;SDS011;33316;52.298;9.056;2022-12-10T06:23:56;31.33;;;12.68;;
47589;SDS011;33316;52.298;9.056;2022-12-10T06:26:24;32.35;;;12.80;;
47589;SDS011;33316;52.298;9.056;2022-12-10T06:28:52;31.73;;;12.45;;
47589;SDS011;33316;52.298;9.056;2022-12-10T06:31:19;29.33;;;11.77;;
47589;SDS011;33316;52.298;9.056;2022-12-10T06:33:47;36.85;;;13.57;;
47589;SDS011;33316;52.298;9.056;2022-12-10T06:36:15;33.67;;;13.68;;
47589;SDS011;33316;52.298;9.056;2022-12-10T06:38:43;33.83;;;13.02;;
47589;SDS011;33316;52.298;9.056;2022-12-10T06:41:11;32.75;;;12.48;;
47589;SDS011;33316;52.298;9.056;2022-12-10T06:43:39;38.30;;;13.02;;
47589;SDS011;33316;52.298;9.056;2022-12-10T06:46:06;35.35;;;13.60;;
47589;SDS011;33316;52.298;9.056;2022-12-10T06:48:33;32.08;;;12.50;;
47589;SDS011;33316;52.298;9.056;2022-12-10T06:51:00;30.00;;;12.20;;
47589;SDS011;33316;52.298;9.056;2022-12-10T06:53:29;30.35;;;11.77;;
47589;SDS011;33316;52.298;9.056;2022-12-10T06:55:57;31.45;;;12.43;;
47589;SDS011;33316;52.298;9.056;2022-12-10T06:58:26;24.90;;;11.07;;
47589;SDS011;33316;52.298;9.056;2022-12-10T07:00:53;29.73;;;12.48;;
47589;SDS011;33316;52.298;9.056;2022-12-10T07:03:19;33.20;;;13.32;;
47589;SDS011;33316;52.298;9.056;2022-12-10T07:05:46;33.45;;;12.75;;
47589;SDS011;33316;52.298;9.056;2022-12-10T07:08:13;31.25;;;12.10;;
47589;SDS011;33316;52.298;9.056;2022-12-10T07:10:44;28.58;;;12.43;;
47589;SDS011;33316;52.298;9.056;2022-12-10T07:13:10;30.73;;;12.13;;
47589;SDS011;33316;52.298;9.056;2022-12-10T07:15:37;27.40;;;11.82;;
47589;SDS011;33316;52.298;9.056;2022-12-10T07:18:04;34.15;;;13.27;;
47589;SDS011;33316;52.298;9.056;2022-12-10T07:20:31;31.38;;;13.55;;
47589;SDS011;33316;52.298;9.056;2022-12-10T07:22:58;27.60;;;12.15;;
47589;SDS011;33316;52.298;9.056;2022-12-10T07:25:25;26.90;;;11.52;;
47589;SDS011;33316;52.298;9.056;2022-12-10T07:27:53;25.65;;;11.98;;
47589;SDS011;33316;52.298;9.056;2022-12-10T07:30:20;28.20;;;13.20;;
47589;SDS011;33316;52.298;9.056;2022-12-10T07:32:46;28.23;;;13.32;;
47589;SDS011;33316;52.298;9.056;2022-12-10T07:35:13;22.27;;;10.95;;
47589;SDS011;33316;52.298;9.056;2022-12-10T07:37:40;23.83;;;10.93;;
47589;SDS011;33316;52.298;9.056;2022-12-10T07:40:07;23.77;;;10.85;;
47589;SDS011;33316;52.298;9.056;2022-12-10T07:42:35;19.38;;;10.15;;
47589;SDS011;33316;52.298;9.056;2022-12-10T07:45:04;21.10;;;10.50;;
47589;SDS011;33316;52.298;9.056;2022-12-10T07:47:31;23.20;;;10.15;;
47589;SDS011;33316;52.298;9.056;2022-12-10T07:50:01;19.42;;;9.95;;
47589;SDS011;33316;52.298;9.056;2022-12-10T07:52:27;20.15;;;9.20;;
47589;SDS011;33316;52.298;9.056;2022-12-10T07:54:54;20.40;;;9.18;;
47589;SDS011;33316;52.298;9.056;2022-12-10T07:57:21;21.63;;;9.82;;
47589;SDS011;33316;52.298;9.056;2022-12-10T07:59:48;19.92;;;9.80;;
47589;SDS011;33316;52.298;9.056;2022-12-10T08:02:16;23.42;;;10.52;;
47589;SDS011;33316;52.298;9.056;2022-12-10T08:04:43;18.77;;;9.35;;
47589;SDS011;33316;52.298;9.056;2022-12-10T08:07:09;22.33;;;11.07;;
47589;SDS011;33316;52.298;9.056;2022-12-10T08:09:36;23.02;;;12.25;;
47589;SDS011;33316;52.298;9.056;2022-12-10T08:12:03;22.50;;;11.82;;
47589;SDS011;33316;52.298;9.056;2022-12-10T08:14:30;20.52;;;10.65;;
47589;SDS011;33316;52.298;9.056;2022-12-10T08:16:57;23.63;;;11.57;;
47589;SDS011;33316;52.298;9.056;2022-12-10T08:19:25;22.23;;;11.68;;
47589;SDS011;33316;52.298;9.056;2022-12-10T08:21:52;22.52;;;10.52;;
47589;SDS011;33316;52.298;9.056;2022-12-10T08:24:19;25.02;;;11.25;;
47589;SDS011;33316;52.298;9.056;2022-12-10T08:26:46;23.70;;;11.57;;
47589;SDS011;33316;52.298;9.056;2022-12-10T08:29:12;21.98;;;10.50;;
47589;SDS011;33316;52.298;9.056;2022-12-10T08:31:39;23.38;;;11.70;;
47589;SDS011;33316;52.298;9.056;2022-12-10T08:34:10;22.75;;;11.57;;
47589;SDS011;33316;52.298;9.056;2022-12-10T08:36:40;20.95;;;11.35;;
47589;SDS011;33316;52.298;9.056;2022-12-10T08:39:07;17.90;;;10.10;;
47589;SDS011;33316;52.298;9.056;2022-12-10T08:41:35;22.63;;;10.85;;
47589;SDS011;33316;52.298;9.056;2022-12-10T08:44:02;20.60;;;10.57;;
47589;SDS011;33316;52.298;9.056;2022-12-10T08:46:30;21.70;;;11.18;;
47589;SDS011;33316;52.298;9.056;2022-12-10T08:48:56;23.45;;;11.50;;
47589;SDS011;33316;52.298;9.056;2022-12-10T08:51:23;19.30;;;10.20;;
47589;SDS011;33316;52.298;9.056;2022-12-10T08:53:52;24.35;;;12.20;;
47589;SDS011;33316;52.298;9.056;2022-12-10T08:56:18;25.50;;;12.77;;
47589;SDS011;33316;52.298;9.056;2022-12-10T08:58:45;25.58;;;12.10;;
47589;SDS011;33316;52.298;9.056;2022-12-10T09:01:13;23.88;;;12.07;;
47589;SDS011;33316;52.298;9.056;2022-12-10T09:03:41;22.73;;;11.68;;
47589;SDS011;33316;52.298;9.056;2022-12-10T09:06:08;20.83;;;10.70;;
47589;SDS011;33316;52.298;9.056;2022-12-10T09:08:36;24.13;;;11.30;;
47589;SDS011;33316;52.298;9.056;2022-12-10T09:11:06;23.75;;;12.45;;
47589;SDS011;33316;52.298;9.056;2022-12-10T09:13:34;30.58;;;12.80;;
47589;SDS011;33316;52.298;9.056;2022-12-10T09:16:01;23.15;;;11.00;;
47589;SDS011;33316;52.298;9.056;2022-12-10T09:18:28;23.15;;;11.25;;
47589;SDS011;33316;52.298;9.056;2022-12-10T09:20:55;26.20;;;12.30;;
47589;SDS011;33316;52.298;9.056;2022-12-10T09:23:22;24.75;;;11.25;;
47589;SDS011;33316;52.298;9.056;2022-12-10T09:25:49;24.42;;;11.25;;
47589;SDS011;33316;52.298;9.056;2022-12-10T09:28:18;19.13;;;10.23;;
47589;SDS011;33316;52.298;9.056;2022-12-10T09:30:44;22.23;;;10.30;;
47589;SDS011;33316;52.298;9.056;2022-12-10T09:33:11;25.35;;;11.10;;
47589;SDS011;33316;52.298;9.056;2022-12-10T09:35:41;24.10;;;11.27;;
47589;SDS011;33316;52.298;9.056;2022-12-10T09:38:08;24.63;;;10.47;;
47589;SDS011;33316;52.298;9.056;2022-12-10T09:40:37;26.45;;;11.07;;
47589;SDS011;33316;52.298;9.056;2022-12-10T09:43:10;27.77;;;11.35;;
47589;SDS011;33316;52.298;9.056;2022-12-10T09:45:45;26.67;;;10.55;;
47589;SDS011;33316;52.298;9.056;2022-12-10T09:48:25;28.73;;;11.18;;
47589;SDS011;33316;52.298;9.056;2022-12-10T09:51:00;23.08;;;11.30;;
47589;SDS011;33316;52.298;9.056;2022-12-10T09:53:31;24.13;;;11.25;;
47589;SDS011;33316;52.298;9.056;2022-12-10T09:55:59;32.22;;;13.55;;
47589;SDS011;33316;52.298;9.056;2022-12-10T09:58:26;27.60;;;11.85;;
47589;SDS011;33316;52.298;9.056;2022-12-10T10:00:55;27.35;;;11.85;;
47589;SDS011;33316;52.298;9.056;2022-12-10T10:03:24;28.13;;;11.82;;
47589;SDS011;33316;52.298;9.056;2022-12-10T10:05:52;25.83;;;11.43;;
47589;SDS011;33316;52.298;9.056;2022-12-10T10:08:23;26.95;;;11.73;;
47589;SDS011;33316;52.298;9.056;2022-12-10T10:10:55;24.15;;;11.88;;
47589;SDS011;33316;52.298;9.056;2022-12-10T10:13:26;24.98;;;11.35;;
47589;SDS011;33316;52.298;9.056;2022-12-10T10:15:58;23.45;;;10.45;;
47589;SDS011;33316;52.298;9.056;2022-12-10T10:18:36;23.60;;;10.23;;
47589;SDS011;33316;52.298;9.056;2022-12-10T10:21:10;25.00;;;11.98;;
47589;SDS011;33316;52.298;9.056;2022-12-10T10:23:41;28.10;;;12.15;;
47589;SDS011;33316;52.298;9.056;2022-12-10T10:26:10;28.08;;;12.13;;
47589;SDS011;33316;52.298;9.056;2022-12-10T10:28:38;25.70;;;11.85;;
47589;SDS011;33316;52.298;9.056;2022-12-10T10:31:11;30.35;;;13.27;;
47589;SDS011;33316;52.298;9.056;2022-12-10T10:33:47;30.67;;;13.77;;
47589;SDS011;33316;52.298;9.056;2022-12-10T10:36:15;34.30;;;14.50;;
47589;SDS011;33316;52.298;9.056;2022-12-10T10:38:46;32.65;;;14.02;;
47589;SDS011;33316;52.298;9.056;2022-12-10T10:41:14;28.80;;;13.35;;
47589;SDS011;33316;52.298;9.056;2022-12-10T10:43:41;29.75;;;13.75;;
47589;SDS011;33316;52.298;9.056;2022-12-10T10:46:12;35.65;;;15.23;;
47589;SDS011;33316;52.298;9.056;2022-12-10T10:48:41;33.80;;;14.95;;
47589;SDS011;33316;52.298;9.056;2022-12-10T10:51:15;32.78;;;14.95;;
47589;SDS011;33316;52.298;9.056;2022-12-10T10:53:46;30.30;;;14.32;;
47589;SDS011;33316;52.298;9.056;2022-12-10T10:56:16;32.15;;;14.57;;
47589;SDS011;33316;52.298;9.056;2022-12-10T10:58:56;32.47;;;14.50;;
47589;SDS011;33316;52.298;9.056;2022-12-10T11:01:43;29.42;;;13.52;;
47589;SDS011;33316;52.298;9.056;2022-12-10T11:04:12;33.60;;;13.57;;
47589;SDS011;33316;52.298;9.056;2022-12-10T11:06:40;28.67;;;13.27;;
47589;SDS011;33316;52.298;9.056;2022-12-10T11:09:07;29.48;;;13.88;;
47589;SDS011;33316;52.298;9.056;2022-12-10T11:11:34;25.27;;;12.57;;
47589;SDS011;33316;52.298;9.056;2022-12-10T11:14:12;26.02;;;13.93;;
47589;SDS011;33316;52.298;9.056;2022-12-10T11:16:42;26.63;;;13.15;;
47589;SDS011;33316;52.298;9.056;2022-12-10T11:19:16;26.25;;;13.60;;
47589;SDS011;33316;52.298;9.056;2022-12-10T11:21:46;30.15;;;13.68;;
47589;SDS011;33316;52.298;9.056;2022-12-10T11:24:15;26.60;;;12.18;;
47589;SDS011;33316;52.298;9.056;2022-12-10T11:26:49;28.50;;;12.75;;
47589;SDS011;33316;52.298;9.056;2022-12-10T11:29:44;25.42;;;11.80;;
47589;SDS011;33316;52.298;9.056;2022-12-10T11:32:25;25.52;;;12.80;;
47589;SDS011;33316;52.298;9.056;2022-12-10T11:35:08;27.17;;;13.07;;
47589;SDS011;33316;52.298;9.056;2022-12-10T11:37:42;27.30;;;13.13;;
47589;SDS011;33316;52.298;9.056;2022-12-10T11:40:23;25.77;;;12.88;;
47589;SDS011;33316;52.298;9.056;2022-12-10T11:43:00;26.35;;;13.00;;
47589;SDS011;33316;52.298;9.056;2022-12-10T11:45:38;26.42;;;11.48;;
47589;SDS011;33316;52.298;9.056;2022-12-10T11:48:18;26.30;;;12.82;;
47589;SDS011;33316;52.298;9.056;2022-12-10T11:50:56;27.02;;;11.93;;
47589;SDS011;33316;52.298;9.056;2022-12-10T11:53:38;25.10;;;12.25;;
47589;SDS011;33316;52.298;9.056;2022-12-10T11:56:18;21.27;;;11.77;;
47589;SDS011;33316;52.298;9.056;2022-12-10T11:58:52;23.80;;;12.27;;
47589;SDS011;33316;52.298;9.056;2022-12-10T12:01:31;26.67;;;13.15;;
47589;SDS011;33316;52.298;9.056;2022-12-10T12:04:32;23.48;;;11.60;;
47589;SDS011;33316;52.298;9.056;2022-12-10T12:07:27;24.65;;;12.32;;
47589;SDS011;33316;52.298;9.056;2022-12-10T12:13:05;31.13;;;12.35;;
47589;SDS011;33316;52.298;9.056;2022-12-10T12:18:04;22.75;;;10.80;;
47589;SDS011;33316;52.298;9.056;2022-12-10T12:20:41;23.25;;;11.20;;
47589;SDS011;33316;52.298;9.056;2022-12-10T12:23:13;22.30;;;11.43;;
47589;SDS011;33316;52.298;9.056;2022-12-10T12:25:44;26.65;;;12.98;;
47589;SDS011;33316;52.298;9.056;2022-12-10T12:28:14;23.85;;;11.98;;
47589;SDS011;33316;52.298;9.056;2022-12-10T12:30:48;22.58;;;11.43;;
47589;SDS011;33316;52.298;9.056;2022-12-10T12:33:25;23.52;;;11.07;;
47589;SDS011;33316;52.298;9.056;2022-12-10T12:35:57;25.00;;;10.82;;
47589;SDS011;33316;52.298;9.056;2022-12-10T12:38:28;22.00;;;10.52;;
47589;SDS011;33316;52.298;9.056;2022-12-10T12:40:57;25.08;;;12.38;;
47589;SDS011;33316;52.298;9.056;2022-12-10T12:43:32;25.52;;;12.00;;
47589;SDS011;33316;52.298;9.056;2022-12-10T12:46:09;19.98;;;10.90;;
47589;SDS011;33316;52.298;9.056;2022-12-10T12:48:41;24.88;;;11.27;;
47589;SDS011;33316;52.298;9.056;2022-12-10T12:51:17;23.60;;;12.10;;
47589;SDS011;33316;52.298;9.056;2022-12-10T12:53:47;23.58;;;12.05;;
47589;SDS011;33316;52.298;9.056;2022-12-10T12:56:17;23.48;;;12.13;;
47589;SDS011;33316;52.298;9.056;2022-12-10T12:58:55;22.48;;;10.48;;
47589;SDS011;33316;52.298;9.056;2022-12-10T13:01:30;23.45;;;11.07;;
47589;SDS011;33316;52.298;9.056;2022-12-10T13:04:01;21.58;;;10.50;;
47589;SDS011;33316;52.298;9.056;2022-12-10T13:06:31;24.83;;;11.38;;
47589;SDS011;33316;52.298;9.056;2022-12-10T13:11:46;21.08;;;10.35;;
47589;SDS011;33316;52.298;9.056;2022-12-10T13:14:54;21.27;;;10.07;;
47589;SDS011;33316;52.298;9.056;2022-12-10T13:17:30;15.98;;;8.70;;
47589;SDS011;33316;52.298;9.056;2022-12-10T13:22:57;22.80;;;11.25;;
47589;SDS011;33316;52.298;9.056;2022-12-10T13:25:37;18.15;;;9.70;;
47589;SDS011;33316;52.298;9.056;2022-12-10T13:28:16;24.83;;;12.05;;
47589;SDS011;33316;52.298;9.056;2022-12-10T13:33:45;23.63;;;11.20;;
47589;SDS011;33316;52.298;9.056;2022-12-10T13:36:17;22.70;;;11.82;;
47589;SDS011;33316;52.298;9.056;2022-12-10T13:38:56;21.40;;;11.20;;
47589;SDS011;33316;52.298;9.056;2022-12-10T13:44:45;16.60;;;8.50;;
47589;SDS011;33316;52.298;9.056;2022-12-10T13:47:24;17.75;;;8.85;;
47589;SDS011;33316;52.298;9.056;2022-12-10T13:49:53;21.35;;;9.52;;
47589;SDS011;33316;52.298;9.056;2022-12-10T13:52:23;21.17;;;10.10;;
47589;SDS011;33316;52.298;9.056;2022-12-10T13:55:17;18.35;;;9.40;;
47589;SDS011;33316;52.298;9.056;2022-12-10T13:57:53;17.33;;;9.25;;
47589;SDS011;33316;52.298;9.056;2022-12-10T14:00:31;18.10;;;8.95;;
47589;SDS011;33316;52.298;9.056;2022-12-10T14:03:09;19.45;;;9.27;;
47589;SDS011;33316;52.298;9.056;2022-12-10T14:06:16;17.60;;;9.27;;
47589;SDS011;33316;52.298;9.056;2022-12-10T14:08:52;17.05;;;9.35;;
47589;SDS011;33316;52.298;9.056;2022-12-10T14:11:25;15.15;;;8.38;;
47589;SDS011;33316;52.298;9.056;2022-12-10T14:13:55;18.48;;;9.50;;
47589;SDS011;33316;52.298;9.056;2022-12-10T14:16:24;19.45;;;9.43;;
47589;SDS011;33316;52.298;9.056;2022-12-10T14:18:55;20.27;;;10.27;;
47589;SDS011;33316;52.298;9.056;2022-12-10T14:21:24;19.80;;;10.68;;
47589;SDS011;33316;52.298;9.056;2022-12-10T14:23:52;16.23;;;9.82;;
47589;SDS011;33316;52.298;9.056;2022-12-10T14:26:20;19.65;;;10.23;;
47589;SDS011;33316;52.298;9.056;2022-12-10T14:28:55;21.77;;;10.90;;
47589;SDS011;33316;52.298;9.056;2022-12-10T14:31:25;19.70;;;9.63;;
47589;SDS011;33316;52.298;9.056;2022-12-10T14:33:55;16.67;;;8.65;;
47589;SDS011;33316;52.298;9.056;2022-12-10T14:36:26;18.60;;;9.68;;
47589;SDS011;33316;52.298;9.056;2022-12-10T14:38:55;19.15;;;10.18;;
47589;SDS011;33316;52.298;9.056;2022-12-10T14:41:23;20.88;;;10.20;;
47589;SDS011;33316;52.298;9.056;2022-12-10T14:43:50;16.00;;;9.13;;
47589;SDS011;33316;52.298;9.056;2022-12-10T14:46:20;18.33;;;10.02;;
47589;SDS011;33316;52.298;9.056;2022-12-10T14:48:50;19.67;;;10.93;;
47589;SDS011;33316;52.298;9.056;2022-12-10T14:51:20;20.65;;;10.93;;
47589;SDS011;33316;52.298;9.056;2022-12-10T14:53:48;16.45;;;9.13;;
47589;SDS011;33316;52.298;9.056;2022-12-10T14:56:18;17.35;;;8.75;;
47589;SDS011;33316;52.298;9.056;2022-12-10T14:58:49;17.90;;;8.90;;
47589;SDS011;33316;52.298;9.056;2022-12-10T15:01:25;18.63;;;9.90;;